WetterOnline ( https://www.wetteronline.de )

Wetter aktuell Hohenpeißenberg

Aktuelles Wetter: Hohenpeißenberg (986m)

6-stündlich | Neueste Meldungen
Ortszeit Temperatur Wetter
Di, 17.05. 20:00 16.4° C leicht bewölkt
Di, 17.05. 14:00 18.1° C leicht bewölkt
Di, 17.05. 8:00 12.3° C leicht bewölkt
Di, 17.05. 2:00 12.3° C bedeckt
Mo, 16.05. 20:00 10.0° C starker Regen
Mo, 16.05. 14:00 18.9° C bedeckt
Mo, 16.05. 8:00 17.2° C leicht bewölkt
Mo, 16.05. 2:00 16.3° C bewölkt
Ortszeit Temperatur Wetter
Di, 17.05. 20:30 15.9° C wolkig
Di, 17.05. 20:20 15.9° C wolkig
Di, 17.05. 20:10 16.1° C bedeckt
Di, 17.05. 20:00 16.4° C leicht bewölkt
Di, 17.05. 19:50 16.4° C wolkig
Di, 17.05. 19:40 16.7° C bedeckt
Di, 17.05. 19:30 17.0° C wolkig
Di, 17.05. 19:00 17.3° C bewölkt
Di, 17.05. 18:30 17.2° C wolkig
Di, 17.05. 18:00 18.5° C wolkig
Di, 17.05. 17:30 18.3° C wolkig
Ortszeit Relative Feuchte Sichtweite
Di, 17.05. 20:00 60% 55 km
Di, 17.05. 14:00 53% >70 km
Di, 17.05. 8:00 78% 65 km
Di, 17.05. 2:00 83% 55 km
Mo, 16.05. 20:00 95% 2.8 km
Mo, 16.05. 14:00 63% 60 km
Mo, 16.05. 8:00 59% >70 km
Mo, 16.05. 2:00 57% 65 km
Ortszeit Relative Feuchte Sichtweite
Di, 17.05. 20:30 62% 65 km
Di, 17.05. 20:20 62% -
Di, 17.05. 20:10 61% -
Di, 17.05. 20:00 60% 55 km
Di, 17.05. 19:50 60% -
Di, 17.05. 19:40 60% -
Di, 17.05. 19:30 56% >70 km
Di, 17.05. 19:00 54% 65 km
Di, 17.05. 18:30 55% 65 km
Di, 17.05. 18:00 53% 45 km
Di, 17.05. 17:30 54% 55 km
Ortszeit Niederschlagsmenge Niederschlagsart
Di, 17.05. 20:00 0.0 l/m2 in 12 Std. -
Di, 17.05. 14:00 0.0 l/m2 in 6 Std. -
Di, 17.05. 8:00 6 l/m2 in 12 Std. -
Di, 17.05. 2:00 6 l/m2 in 6 Std. Regen
Mo, 16.05. 20:00 6 l/m2 in 12 Std. Regen, Niederschlag
Mo, 16.05. 14:00 0.2 l/m2 in 6 Std. Regen
Mo, 16.05. 8:00 0.1 l/m2 in 12 Std. Regen
Mo, 16.05. 2:00 0.0 l/m2 in 6 Std. -
Ortszeit Niederschlagsmenge Niederschlagsart
Di, 17.05. 20:30 0.0 l/m2 in 1 Std. -
Di, 17.05. 20:20 keine Meldung -
Di, 17.05. 20:10 keine Meldung -
Di, 17.05. 20:00 0.0 l/m2 in 1 Std. -
Di, 17.05. 19:50 keine Meldung -
Di, 17.05. 19:40 keine Meldung -
Di, 17.05. 19:30 0.0 l/m2 in 1 Std. -
Di, 17.05. 19:00 0.0 l/m2 in 1 Std. -
Di, 17.05. 18:30 0.0 l/m2 in 1 Std. -
Di, 17.05. 18:00 0.0 l/m2 in 1 Std. -
Di, 17.05. 17:30 0.0 l/m2 in 1 Std. -
Ortszeit Stärke Spitze Richtung
km/h Bft. km/h Grad Sektor
Di, 17.05. 20:00 11 2 25 30° NO
Di, 17.05. 14:00 7 2 19 330° NW
Di, 17.05. 8:00 9 2 30 270° W
Di, 17.05. 2:00 18 3 40 250° W
Mo, 16.05. 20:00 26 4 52 260° W
Mo, 16.05. 14:00 11 2 47 180° S
Mo, 16.05. 8:00 9 2 37 190° S
Mo, 16.05. 2:00 14 3 29 240° SW
Ortszeit Stärke Spitze Richtung
km/h Bft. km/h Grad Sektor
Di, 17.05. 20:30 13 3 19 30° NO
Di, 17.05. 20:20 13 3 - 30° NO
Di, 17.05. 20:10 11 2 - 30° NO
Di, 17.05. 20:00 11 2 18 30° NO
Di, 17.05. 19:50 11 2 - 30° NO
Di, 17.05. 19:40 11 2 - 30° NO
Di, 17.05. 19:30 9 2 19 30° NO
Di, 17.05. 19:00 11 2 22 30° NO
Di, 17.05. 18:30 13 3 22 40° NO
Di, 17.05. 18:00 14 3 25 40° NO
Di, 17.05. 17:30 14 3 25 40° NO
Ortszeit Untergrenze Bedeckung Gattung
total tief tief mittel hoch
Di, 17.05. 20:00 10500 m 8/8 0/8 - - -
Di, 17.05. 14:00 1020 m 5/8 2/8 - - -
Di, 17.05. 8:00 1500 m 2/8 2/8 - - -
Di, 17.05. 2:00 4800 m 8/8 8/8 - - -
Mo, 16.05. 20:00 420 m 7/8 7/8 - - -
Mo, 16.05. 14:00 3300 m 8/8 8/8 - - -
Mo, 16.05. 8:00 2400 m 3/8 1/8 - - -
Mo, 16.05. 2:00 2700 m 8/8 6/8 - - -
Ortszeit Bedeckungsgrad in Achtel und Wolkenuntergrenze
Di, 17.05. 20:30 3(3300m) 8(9000m) 8(10500m)
Di, 17.05. 20:20 3(3300m) 8(9000m) 8(10500m)
Di, 17.05. 20:10 8
Di, 17.05. 20:00 7(10500m) 8(10500m)
Di, 17.05. 19:50 7(10500m) 8(10500m)
Di, 17.05. 19:40 8
Di, 17.05. 19:30 3(9000m) 7(9000m) 7(10500m)
Di, 17.05. 19:00 7(3600m) 7(10500m)
Di, 17.05. 18:30 7(10500m)
Di, 17.05. 18:00 6(1200m) 7(10500m)
Di, 17.05. 17:30 7(9000m)
Ortszeit Stationsdruck (hPa) Tendenz (hPa in 3 Std.)
Di, 17.05. 20:00 909 - 0,3
Di, 17.05. 14:00 910 - 0,7
Di, 17.05. 8:00 911 + 0,8
Di, 17.05. 2:00 910 + 0,2
Mo, 16.05. 20:00 909 + 1,8
Mo, 16.05. 14:00 909 - 0,5
Mo, 16.05. 8:00 907 + 0,3
Mo, 16.05. 2:00 907 + 0,5
Ortszeit Stationsdruck (hPa) Tendenz (hPa in 3 Std.)
Di, 17.05. 20:30 909 + 0,2
Di, 17.05. 20:20 909 keine Meldung
Di, 17.05. 20:10 909 keine Meldung
Di, 17.05. 20:00 909 - 0,3
Di, 17.05. 19:50 909 keine Meldung
Di, 17.05. 19:40 909 keine Meldung
Di, 17.05. 19:30 909 - 0,5
Di, 17.05. 19:00 909 - 0,8
Di, 17.05. 18:30 909 - 0,8
Di, 17.05. 18:00 909 - 0,9
Di, 17.05. 17:30 909 - 0,9
Ortszeit Schneehöhe (cm)
Di, 17.05. 20:00 0
Di, 17.05. 14:00 0
Di, 17.05. 8:00 0
Di, 17.05. 2:00 0
Mo, 16.05. 20:00 0
Mo, 16.05. 14:00 0
Mo, 16.05. 8:00 0
Mo, 16.05. 2:00 0
Ortszeit Schneehöhe (cm)
Di, 17.05. 20:30 0
Di, 17.05. 20:20 0
Di, 17.05. 20:10 0
Di, 17.05. 20:00 0
Di, 17.05. 19:50 0
Di, 17.05. 19:40 0
Di, 17.05. 19:30 0
Di, 17.05. 19:00 0
Di, 17.05. 18:30 0
Di, 17.05. 18:00 0
Di, 17.05. 17:30 0
Link zu dieser Seite / Seite empfehlen

Das Wetter in ...